sensor_id;sensor_type;location;lat;lon;timestamp;temperature;humidity
51839;DHT22;37886;53.174;6.368;2023-05-10T00:01:08;12.80;99.90
51839;DHT22;37886;53.174;6.368;2023-05-10T00:03:33;12.80;99.90
51839;DHT22;37886;53.174;6.368;2023-05-10T00:05:59;12.90;99.90
51839;DHT22;37886;53.174;6.368;2023-05-10T00:08:25;12.80;99.90
51839;DHT22;37886;53.174;6.368;2023-05-10T00:10:50;12.90;99.90
51839;DHT22;37886;53.174;6.368;2023-05-10T00:13:16;12.90;99.90
51839;DHT22;37886;53.174;6.368;2023-05-10T00:15:42;12.80;99.90
51839;DHT22;37886;53.174;6.368;2023-05-10T00:18:07;12.90;99.90
51839;DHT22;37886;53.174;6.368;2023-05-10T00:20:33;12.80;99.90
51839;DHT22;37886;53.174;6.368;2023-05-10T00:22:59;12.80;99.90
51839;DHT22;37886;53.174;6.368;2023-05-10T00:25:24;12.80;99.90
51839;DHT22;37886;53.174;6.368;2023-05-10T00:27:50;12.80;99.90
51839;DHT22;37886;53.174;6.368;2023-05-10T00:30:16;12.80;99.90
51839;DHT22;37886;53.174;6.368;2023-05-10T00:32:42;12.80;99.90
51839;DHT22;37886;53.174;6.368;2023-05-10T00:35:08;12.80;99.90
51839;DHT22;37886;53.174;6.368;2023-05-10T00:37:35;12.70;99.90
51839;DHT22;37886;53.174;6.368;2023-05-10T00:40:00;12.70;99.90
51839;DHT22;37886;53.174;6.368;2023-05-10T00:42:26;12.70;99.90
51839;DHT22;37886;53.174;6.368;2023-05-10T00:44:52;12.80;99.90
51839;DHT22;37886;53.174;6.368;2023-05-10T00:47:18;12.70;99.90
51839;DHT22;37886;53.174;6.368;2023-05-10T00:49:43;12.70;99.90
51839;DHT22;37886;53.174;6.368;2023-05-10T00:52:10;12.70;99.90
51839;DHT22;37886;53.174;6.368;2023-05-10T00:54:36;12.70;99.90
51839;DHT22;37886;53.174;6.368;2023-05-10T00:57:02;12.60;99.90
51839;DHT22;37886;53.174;6.368;2023-05-10T00:59:29;12.70;99.90
51839;DHT22;37886;53.174;6.368;2023-05-10T01:01:54;12.60;99.90
51839;DHT22;37886;53.174;6.368;2023-05-10T01:04:20;12.60;99.90
51839;DHT22;37886;53.174;6.368;2023-05-10T01:06:52;12.60;99.90
51839;DHT22;37886;53.174;6.368;2023-05-10T01:09:19;12.60;99.90
51839;DHT22;37886;53.174;6.368;2023-05-10T01:11:45;12.60;99.90
51839;DHT22;37886;53.174;6.368;2023-05-10T01:14:11;12.60;99.90
51839;DHT22;37886;53.174;6.368;2023-05-10T01:16:38;12.60;99.90
51839;DHT22;37886;53.174;6.368;2023-05-10T01:19:24;12.60;99.90
51839;DHT22;37886;53.174;6.368;2023-05-10T01:22:02;12.50;99.90
51839;DHT22;37886;53.174;6.368;2023-05-10T01:27:29;12.50;99.90
51839;DHT22;37886;53.174;6.368;2023-05-10T01:35:26;12.60;99.90
51839;DHT22;37886;53.174;6.368;2023-05-10T01:38:03;12.50;99.90
51839;DHT22;37886;53.174;6.368;2023-05-10T01:40:35;12.50;99.90
51839;DHT22;37886;53.174;6.368;2023-05-10T01:43:03;12.50;99.90
51839;DHT22;37886;53.174;6.368;2023-05-10T01:45:32;12.50;99.90
51839;DHT22;37886;53.174;6.368;2023-05-10T01:48:06;12.50;99.90
51839;DHT22;37886;53.174;6.368;2023-05-10T01:50:34;12.50;99.90
51839;DHT22;37886;53.174;6.368;2023-05-10T01:53:02;12.50;99.90
51839;DHT22;37886;53.174;6.368;2023-05-10T01:55:35;12.50;99.90
51839;DHT22;37886;53.174;6.368;2023-05-10T01:58:13;12.50;99.90
51839;DHT22;37886;53.174;6.368;2023-05-10T02:00:44;12.50;99.90
51839;DHT22;37886;53.174;6.368;2023-05-10T02:03:10;12.50;99.90
51839;DHT22;37886;53.174;6.368;2023-05-10T02:05:37;12.50;99.90
51839;DHT22;37886;53.174;6.368;2023-05-10T02:08:06;12.60;99.90
51839;DHT22;37886;53.174;6.368;2023-05-10T02:10:35;12.50;99.90
51839;DHT22;37886;53.174;6.368;2023-05-10T02:13:02;12.50;99.90
51839;DHT22;37886;53.174;6.368;2023-05-10T02:15:28;12.50;99.90
51839;DHT22;37886;53.174;6.368;2023-05-10T02:17:56;12.50;99.90
51839;DHT22;37886;53.174;6.368;2023-05-10T02:20:23;12.50;99.90
51839;DHT22;37886;53.174;6.368;2023-05-10T02:22:51;12.50;99.90
51839;DHT22;37886;53.174;6.368;2023-05-10T02:25:19;12.60;99.90
51839;DHT22;37886;53.174;6.368;2023-05-10T02:27:46;12.60;99.90
51839;DHT22;37886;53.174;6.368;2023-05-10T02:30:13;12.50;99.90
51839;DHT22;37886;53.174;6.368;2023-05-10T02:32:39;12.50;99.90
51839;DHT22;37886;53.174;6.368;2023-05-10T02:35:06;12.50;99.90
51839;DHT22;37886;53.174;6.368;2023-05-10T02:37:33;12.50;99.90
51839;DHT22;37886;53.174;6.368;2023-05-10T02:40:00;12.50;99.90
51839;DHT22;37886;53.174;6.368;2023-05-10T02:42:29;12.50;99.90
51839;DHT22;37886;53.174;6.368;2023-05-10T02:45:01;12.50;99.90
51839;DHT22;37886;53.174;6.368;2023-05-10T02:47:28;12.50;99.90
51839;DHT22;37886;53.174;6.368;2023-05-10T02:49:54;12.50;99.90
51839;DHT22;37886;53.174;6.368;2023-05-10T02:52:27;12.50;99.90
51839;DHT22;37886;53.174;6.368;2023-05-10T02:55:00;12.50;99.90
51839;DHT22;37886;53.174;6.368;2023-05-10T02:57:33;12.60;99.90
51839;DHT22;37886;53.174;6.368;2023-05-10T02:59:59;12.50;99.90
51839;DHT22;37886;53.174;6.368;2023-05-10T03:02:26;12.50;99.90
51839;DHT22;37886;53.174;6.368;2023-05-10T03:04:52;12.60;99.90
51839;DHT22;37886;53.174;6.368;2023-05-10T03:07:18;12.50;99.90
51839;DHT22;37886;53.174;6.368;2023-05-10T03:09:47;12.50;99.90
51839;DHT22;37886;53.174;6.368;2023-05-10T03:20:20;12.50;99.90
51839;DHT22;37886;53.174;6.368;2023-05-10T03:22:51;12.50;99.90
51839;DHT22;37886;53.174;6.368;2023-05-10T03:25:19;12.50;99.90
51839;DHT22;37886;53.174;6.368;2023-05-10T03:27:47;12.50;99.90
51839;DHT22;37886;53.174;6.368;2023-05-10T03:30:13;12.50;99.90
51839;DHT22;37886;53.174;6.368;2023-05-10T03:32:39;12.50;99.90
51839;DHT22;37886;53.174;6.368;2023-05-10T03:35:09;12.50;99.90
51839;DHT22;37886;53.174;6.368;2023-05-10T03:37:36;12.50;99.90
51839;DHT22;37886;53.174;6.368;2023-05-10T03:40:02;12.50;99.90
51839;DHT22;37886;53.174;6.368;2023-05-10T03:42:28;12.50;99.90
51839;DHT22;37886;53.174;6.368;2023-05-10T03:44:54;12.50;99.90
51839;DHT22;37886;53.174;6.368;2023-05-10T03:47:19;12.50;99.90
51839;DHT22;37886;53.174;6.368;2023-05-10T03:49:45;12.50;99.90
51839;DHT22;37886;53.174;6.368;2023-05-10T03:52:11;12.50;99.90
51839;DHT22;37886;53.174;6.368;2023-05-10T03:54:37;12.50;99.90
51839;DHT22;37886;53.174;6.368;2023-05-10T03:57:03;12.50;99.90
51839;DHT22;37886;53.174;6.368;2023-05-10T03:59:29;12.50;99.90
51839;DHT22;37886;53.174;6.368;2023-05-10T04:01:55;12.50;99.90
51839;DHT22;37886;53.174;6.368;2023-05-10T04:04:21;12.50;99.90
51839;DHT22;37886;53.174;6.368;2023-05-10T04:06:47;12.50;99.90
51839;DHT22;37886;53.174;6.368;2023-05-10T04:09:13;12.50;99.90
51839;DHT22;37886;53.174;6.368;2023-05-10T04:11:39;12.60;99.90
51839;DHT22;37886;53.174;6.368;2023-05-10T04:14:05;12.50;99.90
51839;DHT22;37886;53.174;6.368;2023-05-10T04:16:31;12.50;99.90
51839;DHT22;37886;53.174;6.368;2023-05-10T04:18:56;12.50;99.90
51839;DHT22;37886;53.174;6.368;2023-05-10T04:21:22;12.50;99.90
51839;DHT22;37886;53.174;6.368;2023-05-10T04:23:48;12.50;99.90
51839;DHT22;37886;53.174;6.368;2023-05-10T04:26:14;12.50;99.90
51839;DHT22;37886;53.174;6.368;2023-05-10T04:28:40;12.40;99.90
51839;DHT22;37886;53.174;6.368;2023-05-10T04:31:07;12.40;99.90
51839;DHT22;37886;53.174;6.368;2023-05-10T04:33:34;12.40;99.90
51839;DHT22;37886;53.174;6.368;2023-05-10T04:36:00;12.40;99.90
51839;DHT22;37886;53.174;6.368;2023-05-10T04:38:26;12.40;99.90
51839;DHT22;37886;53.174;6.368;2023-05-10T04:40:52;12.40;99.90
51839;DHT22;37886;53.174;6.368;2023-05-10T04:43:18;12.30;99.90
51839;DHT22;37886;53.174;6.368;2023-05-10T04:45:44;12.40;99.90
51839;DHT22;37886;53.174;6.368;2023-05-10T04:48:10;12.40;99.90
51839;DHT22;37886;53.174;6.368;2023-05-10T04:50:35;12.40;99.90
51839;DHT22;37886;53.174;6.368;2023-05-10T04:53:01;12.30;99.90
51839;DHT22;37886;53.174;6.368;2023-05-10T04:55:27;12.30;99.90
51839;DHT22;37886;53.174;6.368;2023-05-10T04:57:53;12.40;99.90
51839;DHT22;37886;53.174;6.368;2023-05-10T05:00:22;12.40;99.90
51839;DHT22;37886;53.174;6.368;2023-05-10T05:02:48;12.40;99.90
51839;DHT22;37886;53.174;6.368;2023-05-10T05:05:14;12.40;99.90
51839;DHT22;37886;53.174;6.368;2023-05-10T05:07:40;12.40;99.90
51839;DHT22;37886;53.174;6.368;2023-05-10T05:10:07;12.30;99.90
51839;DHT22;37886;53.174;6.368;2023-05-10T05:12:33;12.40;99.90
51839;DHT22;37886;53.174;6.368;2023-05-10T05:14:58;12.30;99.90
51839;DHT22;37886;53.174;6.368;2023-05-10T05:17:24;12.40;99.90
51839;DHT22;37886;53.174;6.368;2023-05-10T05:19:50;12.40;99.90
51839;DHT22;37886;53.174;6.368;2023-05-10T05:22:15;12.40;99.90
51839;DHT22;37886;53.174;6.368;2023-05-10T05:24:41;12.40;99.90
51839;DHT22;37886;53.174;6.368;2023-05-10T05:27:07;12.40;99.90
51839;DHT22;37886;53.174;6.368;2023-05-10T05:29:32;12.40;99.90
51839;DHT22;37886;53.174;6.368;2023-05-10T05:31:58;12.40;99.90
51839;DHT22;37886;53.174;6.368;2023-05-10T05:34:24;12.40;99.90
51839;DHT22;37886;53.174;6.368;2023-05-10T05:36:49;12.50;99.90
51839;DHT22;37886;53.174;6.368;2023-05-10T05:39:15;12.60;99.90
51839;DHT22;37886;53.174;6.368;2023-05-10T05:41:41;12.60;99.90
51839;DHT22;37886;53.174;6.368;2023-05-10T05:44:07;12.60;99.90
51839;DHT22;37886;53.174;6.368;2023-05-10T05:46:33;12.60;99.90
51839;DHT22;37886;53.174;6.368;2023-05-10T05:48:59;12.60;99.90
51839;DHT22;37886;53.174;6.368;2023-05-10T05:51:24;12.60;99.90
51839;DHT22;37886;53.174;6.368;2023-05-10T05:53:50;12.60;99.90
51839;DHT22;37886;53.174;6.368;2023-05-10T05:56:16;12.70;99.90
51839;DHT22;37886;53.174;6.368;2023-05-10T05:58:43;12.70;99.90
51839;DHT22;37886;53.174;6.368;2023-05-10T06:01:09;12.70;99.90
51839;DHT22;37886;53.174;6.368;2023-05-10T06:03:35;12.70;99.90
51839;DHT22;37886;53.174;6.368;2023-05-10T06:06:01;12.60;99.90
51839;DHT22;37886;53.174;6.368;2023-05-10T06:08:26;12.60;99.90
51839;DHT22;37886;53.174;6.368;2023-05-10T06:10:52;12.60;99.90
51839;DHT22;37886;53.174;6.368;2023-05-10T06:13:18;12.50;99.90
51839;DHT22;37886;53.174;6.368;2023-05-10T06:15:43;12.50;99.90
51839;DHT22;37886;53.174;6.368;2023-05-10T06:18:12;12.50;99.90
51839;DHT22;37886;53.174;6.368;2023-05-10T06:20:38;12.50;99.90
51839;DHT22;37886;53.174;6.368;2023-05-10T06:23:03;12.50;99.90
51839;DHT22;37886;53.174;6.368;2023-05-10T06:25:29;12.50;99.90
51839;DHT22;37886;53.174;6.368;2023-05-10T06:27:55;12.50;99.90
51839;DHT22;37886;53.174;6.368;2023-05-10T06:30:24;12.50;99.90
51839;DHT22;37886;53.174;6.368;2023-05-10T06:32:53;12.50;99.90
51839;DHT22;37886;53.174;6.368;2023-05-10T06:35:19;12.50;99.90
51839;DHT22;37886;53.174;6.368;2023-05-10T06:37:44;12.50;99.90
51839;DHT22;37886;53.174;6.368;2023-05-10T06:40:10;12.50;99.90
51839;DHT22;37886;53.174;6.368;2023-05-10T06:42:36;12.50;99.90
51839;DHT22;37886;53.174;6.368;2023-05-10T06:45:02;12.50;99.90
51839;DHT22;37886;53.174;6.368;2023-05-10T06:47:27;12.50;99.90
51839;DHT22;37886;53.174;6.368;2023-05-10T06:49:53;12.50;99.90
51839;DHT22;37886;53.174;6.368;2023-05-10T06:52:19;12.50;99.90
51839;DHT22;37886;53.174;6.368;2023-05-10T06:54:45;12.60;99.90
51839;DHT22;37886;53.174;6.368;2023-05-10T06:57:10;12.60;99.90
51839;DHT22;37886;53.174;6.368;2023-05-10T06:59:36;12.60;99.90
51839;DHT22;37886;53.174;6.368;2023-05-10T07:02:02;12.60;99.90
51839;DHT22;37886;53.174;6.368;2023-05-10T07:04:27;12.60;99.90
51839;DHT22;37886;53.174;6.368;2023-05-10T07:06:53;12.70;99.90
51839;DHT22;37886;53.174;6.368;2023-05-10T07:09:19;12.70;99.90
51839;DHT22;37886;53.174;6.368;2023-05-10T07:11:45;12.80;99.90
51839;DHT22;37886;53.174;6.368;2023-05-10T07:14:10;12.80;99.90
51839;DHT22;37886;53.174;6.368;2023-05-10T07:16:36;12.90;99.90
51839;DHT22;37886;53.174;6.368;2023-05-10T07:19:01;13.00;99.90
51839;DHT22;37886;53.174;6.368;2023-05-10T07:21:27;13.00;99.90
51839;DHT22;37886;53.174;6.368;2023-05-10T07:23:54;13.00;99.90
51839;DHT22;37886;53.174;6.368;2023-05-10T07:26:20;13.00;99.90
51839;DHT22;37886;53.174;6.368;2023-05-10T07:28:46;13.00;99.90
51839;DHT22;37886;53.174;6.368;2023-05-10T07:31:12;13.00;99.90
51839;DHT22;37886;53.174;6.368;2023-05-10T07:33:38;13.00;99.90
51839;DHT22;37886;53.174;6.368;2023-05-10T07:36:03;13.10;99.90
51839;DHT22;37886;53.174;6.368;2023-05-10T07:38:29;13.10;99.90
51839;DHT22;37886;53.174;6.368;2023-05-10T07:40:55;13.10;99.90
51839;DHT22;37886;53.174;6.368;2023-05-10T07:43:20;13.10;99.90
51839;DHT22;37886;53.174;6.368;2023-05-10T07:45:46;13.10;99.90
51839;DHT22;37886;53.174;6.368;2023-05-10T07:48:12;13.20;99.90
51839;DHT22;37886;53.174;6.368;2023-05-10T07:50:37;13.20;99.90
51839;DHT22;37886;53.174;6.368;2023-05-10T07:53:03;13.20;99.90
51839;DHT22;37886;53.174;6.368;2023-05-10T07:55:29;13.20;99.90
51839;DHT22;37886;53.174;6.368;2023-05-10T07:57:54;13.10;99.90
51839;DHT22;37886;53.174;6.368;2023-05-10T08:00:20;13.20;99.90
51839;DHT22;37886;53.174;6.368;2023-05-10T08:02:47;13.20;99.90
51839;DHT22;37886;53.174;6.368;2023-05-10T08:05:12;13.20;99.90
51839;DHT22;37886;53.174;6.368;2023-05-10T08:07:38;13.30;99.90
51839;DHT22;37886;53.174;6.368;2023-05-10T08:10:05;13.30;99.90
51839;DHT22;37886;53.174;6.368;2023-05-10T08:12:31;13.30;99.90
51839;DHT22;37886;53.174;6.368;2023-05-10T08:14:56;13.30;99.90
51839;DHT22;37886;53.174;6.368;2023-05-10T08:17:22;13.40;99.90
51839;DHT22;37886;53.174;6.368;2023-05-10T08:19:48;13.40;99.90
51839;DHT22;37886;53.174;6.368;2023-05-10T08:22:13;13.30;99.90
51839;DHT22;37886;53.174;6.368;2023-05-10T08:24:39;13.30;99.90
51839;DHT22;37886;53.174;6.368;2023-05-10T08:27:08;13.40;99.90
51839;DHT22;37886;53.174;6.368;2023-05-10T08:29:34;13.40;99.90
51839;DHT22;37886;53.174;6.368;2023-05-10T08:31:59;13.40;99.90
51839;DHT22;37886;53.174;6.368;2023-05-10T08:34:26;13.40;99.90
51839;DHT22;37886;53.174;6.368;2023-05-10T08:36:52;13.40;99.90
51839;DHT22;37886;53.174;6.368;2023-05-10T08:39:18;13.40;99.90
51839;DHT22;37886;53.174;6.368;2023-05-10T08:41:44;13.40;99.90
51839;DHT22;37886;53.174;6.368;2023-05-10T08:44:12;13.40;99.90
51839;DHT22;37886;53.174;6.368;2023-05-10T08:46:41;13.40;99.90
51839;DHT22;37886;53.174;6.368;2023-05-10T08:49:13;13.40;99.90
51839;DHT22;37886;53.174;6.368;2023-05-10T08:51:46;13.40;99.90
51839;DHT22;37886;53.174;6.368;2023-05-10T08:54:15;13.40;99.90
51839;DHT22;37886;53.174;6.368;2023-05-10T08:56:41;13.50;99.90
51839;DHT22;37886;53.174;6.368;2023-05-10T08:59:07;13.60;99.90
51839;DHT22;37886;53.174;6.368;2023-05-10T09:01:35;13.60;99.90
51839;DHT22;37886;53.174;6.368;2023-05-10T09:04:00;13.70;99.90
51839;DHT22;37886;53.174;6.368;2023-05-10T09:06:27;13.60;99.90
51839;DHT22;37886;53.174;6.368;2023-05-10T09:08:52;13.70;99.90
51839;DHT22;37886;53.174;6.368;2023-05-10T09:11:20;13.70;99.90
51839;DHT22;37886;53.174;6.368;2023-05-10T09:13:48;13.70;99.90
51839;DHT22;37886;53.174;6.368;2023-05-10T09:16:14;13.70;99.90
51839;DHT22;37886;53.174;6.368;2023-05-10T09:18:39;13.90;99.90
51839;DHT22;37886;53.174;6.368;2023-05-10T09:21:05;14.00;99.90
51839;DHT22;37886;53.174;6.368;2023-05-10T09:23:31;14.10;99.90
51839;DHT22;37886;53.174;6.368;2023-05-10T09:26:07;14.10;99.90
51839;DHT22;37886;53.174;6.368;2023-05-10T09:28:51;14.30;99.90
51839;DHT22;37886;53.174;6.368;2023-05-10T09:31:17;14.30;99.90
51839;DHT22;37886;53.174;6.368;2023-05-10T09:33:45;14.50;99.90
51839;DHT22;37886;53.174;6.368;2023-05-10T09:36:11;14.60;99.90
51839;DHT22;37886;53.174;6.368;2023-05-10T09:38:51;14.70;99.90
51839;DHT22;37886;53.174;6.368;2023-05-10T09:41:24;14.80;99.90
51839;DHT22;37886;53.174;6.368;2023-05-10T09:43:52;14.90;99.90
51839;DHT22;37886;53.174;6.368;2023-05-10T09:46:20;15.00;99.90
51839;DHT22;37886;53.174;6.368;2023-05-10T09:48:47;14.90;99.90
51839;DHT22;37886;53.174;6.368;2023-05-10T09:51:23;14.90;99.90
51839;DHT22;37886;53.174;6.368;2023-05-10T09:54:09;14.90;99.90
51839;DHT22;37886;53.174;6.368;2023-05-10T09:56:35;14.80;99.90
51839;DHT22;37886;53.174;6.368;2023-05-10T09:59:03;14.70;99.90
51839;DHT22;37886;53.174;6.368;2023-05-10T10:01:29;14.70;99.90
51839;DHT22;37886;53.174;6.368;2023-05-10T10:03:56;14.70;99.90
51839;DHT22;37886;53.174;6.368;2023-05-10T10:06:23;14.80;99.90
51839;DHT22;37886;53.174;6.368;2023-05-10T10:08:50;15.00;99.90
51839;DHT22;37886;53.174;6.368;2023-05-10T10:11:17;15.00;99.90
51839;DHT22;37886;53.174;6.368;2023-05-10T10:13:43;15.10;99.90
51839;DHT22;37886;53.174;6.368;2023-05-10T10:16:09;15.20;99.90
51839;DHT22;37886;53.174;6.368;2023-05-10T10:18:36;15.10;99.90
51839;DHT22;37886;53.174;6.368;2023-05-10T10:21:08;15.30;99.90
51839;DHT22;37886;53.174;6.368;2023-05-10T10:23:37;15.40;99.90
51839;DHT22;37886;53.174;6.368;2023-05-10T10:26:04;15.40;99.90
51839;DHT22;37886;53.174;6.368;2023-05-10T10:36:27;15.80;99.90
51839;DHT22;37886;53.174;6.368;2023-05-10T10:39:01;15.80;99.90
51839;DHT22;37886;53.174;6.368;2023-05-10T10:49:49;15.00;99.90
51839;DHT22;37886;53.174;6.368;2023-05-10T10:55:04;15.00;99.90
51839;DHT22;37886;53.174;6.368;2023-05-10T10:57:33;15.00;99.90
51839;DHT22;37886;53.174;6.368;2023-05-10T11:00:32;14.90;99.90
51839;DHT22;37886;53.174;6.368;2023-05-10T11:03:11;14.90;99.90
51839;DHT22;37886;53.174;6.368;2023-05-10T11:10:38;15.00;99.90
51839;DHT22;37886;53.174;6.368;2023-05-10T11:13:05;14.90;99.90
51839;DHT22;37886;53.174;6.368;2023-05-10T11:15:36;14.90;99.90
51839;DHT22;37886;53.174;6.368;2023-05-10T11:21:00;14.80;99.90
51839;DHT22;37886;53.174;6.368;2023-05-10T11:23:49;14.70;99.90
51839;DHT22;37886;53.174;6.368;2023-05-10T11:26:15;14.70;99.90
51839;DHT22;37886;53.174;6.368;2023-05-10T11:28:42;14.70;99.90
51839;DHT22;37886;53.174;6.368;2023-05-10T11:31:08;14.70;99.90
51839;DHT22;37886;53.174;6.368;2023-05-10T11:33:44;14.80;99.90
51839;DHT22;37886;53.174;6.368;2023-05-10T11:36:36;14.90;99.90
51839;DHT22;37886;53.174;6.368;2023-05-10T11:39:03;14.90;99.90
51839;DHT22;37886;53.174;6.368;2023-05-10T11:41:30;14.90;99.90
51839;DHT22;37886;53.174;6.368;2023-05-10T11:43:56;15.00;99.90
51839;DHT22;37886;53.174;6.368;2023-05-10T11:46:27;15.10;99.90
51839;DHT22;37886;53.174;6.368;2023-05-10T11:48:55;15.30;99.90
51839;DHT22;37886;53.174;6.368;2023-05-10T11:51:24;15.30;99.90
51839;DHT22;37886;53.174;6.368;2023-05-10T11:53:53;15.40;99.90
51839;DHT22;37886;53.174;6.368;2023-05-10T11:56:19;15.50;99.90
51839;DHT22;37886;53.174;6.368;2023-05-10T11:58:55;15.40;99.90
51839;DHT22;37886;53.174;6.368;2023-05-10T12:01:21;15.40;99.90
51839;DHT22;37886;53.174;6.368;2023-05-10T12:03:50;15.40;99.90
51839;DHT22;37886;53.174;6.368;2023-05-10T12:06:18;15.40;99.90
51839;DHT22;37886;53.174;6.368;2023-05-10T12:08:45;15.40;99.90
51839;DHT22;37886;53.174;6.368;2023-05-10T12:11:12;15.50;99.90
51839;DHT22;37886;53.174;6.368;2023-05-10T12:13:43;15.50;99.90
51839;DHT22;37886;53.174;6.368;2023-05-10T12:16:22;15.60;99.90
51839;DHT22;37886;53.174;6.368;2023-05-10T12:18:52;15.70;99.90
51839;DHT22;37886;53.174;6.368;2023-05-10T12:21:19;15.80;99.90
51839;DHT22;37886;53.174;6.368;2023-05-10T12:23:59;15.70;99.90
51839;DHT22;37886;53.174;6.368;2023-05-10T12:26:26;15.60;99.90
51839;DHT22;37886;53.174;6.368;2023-05-10T12:28:54;15.50;99.90
51839;DHT22;37886;53.174;6.368;2023-05-10T12:31:20;15.60;99.90
51839;DHT22;37886;53.174;6.368;2023-05-10T12:33:46;15.50;99.90
51839;DHT22;37886;53.174;6.368;2023-05-10T12:36:15;15.60;99.90
51839;DHT22;37886;53.174;6.368;2023-05-10T12:38:42;15.60;99.90
51839;DHT22;37886;53.174;6.368;2023-05-10T12:41:14;15.60;99.90
51839;DHT22;37886;53.174;6.368;2023-05-10T12:43:41;15.60;99.90
51839;DHT22;37886;53.174;6.368;2023-05-10T12:46:10;15.60;99.90
51839;DHT22;37886;53.174;6.368;2023-05-10T12:48:37;15.70;99.90
51839;DHT22;37886;53.174;6.368;2023-05-10T12:51:04;15.70;99.90
51839;DHT22;37886;53.174;6.368;2023-05-10T12:53:30;15.80;99.90
51839;DHT22;37886;53.174;6.368;2023-05-10T12:55:57;15.60;99.90
51839;DHT22;37886;53.174;6.368;2023-05-10T12:58:23;15.60;99.90
51839;DHT22;37886;53.174;6.368;2023-05-10T13:00:48;15.70;99.90
51839;DHT22;37886;53.174;6.368;2023-05-10T13:03:14;15.70;99.90
51839;DHT22;37886;53.174;6.368;2023-05-10T13:05:41;15.60;99.90
51839;DHT22;37886;53.174;6.368;2023-05-10T13:08:06;15.70;99.90
51839;DHT22;37886;53.174;6.368;2023-05-10T13:10:32;15.80;99.90
51839;DHT22;37886;53.174;6.368;2023-05-10T13:12:59;15.90;99.90
51839;DHT22;37886;53.174;6.368;2023-05-10T13:15:25;16.00;99.90
51839;DHT22;37886;53.174;6.368;2023-05-10T13:17:52;16.10;99.90
51839;DHT22;37886;53.174;6.368;2023-05-10T13:20:18;16.40;99.90
51839;DHT22;37886;53.174;6.368;2023-05-10T13:22:44;16.60;99.90
51839;DHT22;37886;53.174;6.368;2023-05-10T13:25:11;17.00;99.90
51839;DHT22;37886;53.174;6.368;2023-05-10T13:27:37;17.10;99.90
51839;DHT22;37886;53.174;6.368;2023-05-10T13:30:03;17.50;99.90
51839;DHT22;37886;53.174;6.368;2023-05-10T13:32:29;17.50;99.90
51839;DHT22;37886;53.174;6.368;2023-05-10T13:34:56;17.50;99.90
51839;DHT22;37886;53.174;6.368;2023-05-10T13:37:22;17.50;99.90
51839;DHT22;37886;53.174;6.368;2023-05-10T13:39:48;17.50;99.90
51839;DHT22;37886;53.174;6.368;2023-05-10T13:42:14;17.30;99.90
51839;DHT22;37886;53.174;6.368;2023-05-10T13:44:39;17.20;99.90
51839;DHT22;37886;53.174;6.368;2023-05-10T13:47:05;17.00;99.90
51839;DHT22;37886;53.174;6.368;2023-05-10T13:49:31;16.80;99.90
51839;DHT22;37886;53.174;6.368;2023-05-10T13:51:57;16.80;99.90
51839;DHT22;37886;53.174;6.368;2023-05-10T13:54:23;16.70;99.90
51839;DHT22;37886;53.174;6.368;2023-05-10T13:56:49;16.70;99.90
51839;DHT22;37886;53.174;6.368;2023-05-10T13:59:15;16.70;99.90
51839;DHT22;37886;53.174;6.368;2023-05-10T14:01:41;16.70;99.90
51839;DHT22;37886;53.174;6.368;2023-05-10T14:04:08;16.90;99.90
51839;DHT22;37886;53.174;6.368;2023-05-10T14:06:36;17.00;99.90
51839;DHT22;37886;53.174;6.368;2023-05-10T14:09:05;17.00;99.90
51839;DHT22;37886;53.174;6.368;2023-05-10T14:11:30;17.00;99.90
51839;DHT22;37886;53.174;6.368;2023-05-10T14:13:56;17.20;99.90
51839;DHT22;37886;53.174;6.368;2023-05-10T14:16:22;17.30;99.90
51839;DHT22;37886;53.174;6.368;2023-05-10T14:18:47;17.30;99.90
51839;DHT22;37886;53.174;6.368;2023-05-10T14:21:13;17.30;99.90
51839;DHT22;37886;53.174;6.368;2023-05-10T14:23:39;17.30;99.90
51839;DHT22;37886;53.174;6.368;2023-05-10T14:26:05;17.30;99.90
51839;DHT22;37886;53.174;6.368;2023-05-10T14:28:31;17.50;99.90
51839;DHT22;37886;53.174;6.368;2023-05-10T14:30:58;17.50;99.90
51839;DHT22;37886;53.174;6.368;2023-05-10T14:33:24;17.20;99.90
51839;DHT22;37886;53.174;6.368;2023-05-10T14:35:50;17.30;99.90
51839;DHT22;37886;53.174;6.368;2023-05-10T14:38:16;17.30;99.90
51839;DHT22;37886;53.174;6.368;2023-05-10T14:40:42;17.20;99.90
51839;DHT22;37886;53.174;6.368;2023-05-10T14:43:08;17.10;99.90
51839;DHT22;37886;53.174;6.368;2023-05-10T14:45:34;16.80;99.90
51839;DHT22;37886;53.174;6.368;2023-05-10T14:48:00;16.80;99.90
51839;DHT22;37886;53.174;6.368;2023-05-10T14:50:25;16.80;99.90
51839;DHT22;37886;53.174;6.368;2023-05-10T14:52:51;16.80;99.90
51839;DHT22;37886;53.174;6.368;2023-05-10T14:55:17;16.80;99.90
51839;DHT22;37886;53.174;6.368;2023-05-10T14:57:43;16.90;99.90
51839;DHT22;37886;53.174;6.368;2023-05-10T15:00:09;16.90;99.90
51839;DHT22;37886;53.174;6.368;2023-05-10T15:02:35;16.90;99.90
51839;DHT22;37886;53.174;6.368;2023-05-10T15:05:02;16.70;99.90
51839;DHT22;37886;53.174;6.368;2023-05-10T15:07:27;16.60;99.90
51839;DHT22;37886;53.174;6.368;2023-05-10T15:09:53;16.50;99.90
51839;DHT22;37886;53.174;6.368;2023-05-10T15:12:20;16.40;99.90
51839;DHT22;37886;53.174;6.368;2023-05-10T15:14:46;16.40;99.90
51839;DHT22;37886;53.174;6.368;2023-05-10T15:17:12;16.40;99.90
51839;DHT22;37886;53.174;6.368;2023-05-10T15:19:37;16.40;99.90
51839;DHT22;37886;53.174;6.368;2023-05-10T15:22:04;16.30;99.90
51839;DHT22;37886;53.174;6.368;2023-05-10T15:24:31;16.30;99.90
51839;DHT22;37886;53.174;6.368;2023-05-10T15:26:56;16.40;99.90
51839;DHT22;37886;53.174;6.368;2023-05-10T15:29:22;16.50;99.90
51839;DHT22;37886;53.174;6.368;2023-05-10T15:31:51;16.50;99.90
51839;DHT22;37886;53.174;6.368;2023-05-10T15:34:17;16.50;99.90
51839;DHT22;37886;53.174;6.368;2023-05-10T15:36:44;16.50;99.90
51839;DHT22;37886;53.174;6.368;2023-05-10T15:39:10;16.50;99.90
51839;DHT22;37886;53.174;6.368;2023-05-10T15:41:36;16.40;99.90
51839;DHT22;37886;53.174;6.368;2023-05-10T15:44:02;16.20;99.90
51839;DHT22;37886;53.174;6.368;2023-05-10T15:46:28;16.00;99.90
51839;DHT22;37886;53.174;6.368;2023-05-10T15:48:54;15.90;99.90
51839;DHT22;37886;53.174;6.368;2023-05-10T15:51:20;15.90;99.90
51839;DHT22;37886;53.174;6.368;2023-05-10T15:53:46;15.80;99.90
51839;DHT22;37886;53.174;6.368;2023-05-10T15:56:12;15.70;99.90
51839;DHT22;37886;53.174;6.368;2023-05-10T15:58:39;15.60;99.90
51839;DHT22;37886;53.174;6.368;2023-05-10T16:01:05;15.60;99.90
51839;DHT22;37886;53.174;6.368;2023-05-10T16:03:32;15.60;99.90
51839;DHT22;37886;53.174;6.368;2023-05-10T16:05:57;15.50;99.90
51839;DHT22;37886;53.174;6.368;2023-05-10T16:08:23;15.60;99.90
51839;DHT22;37886;53.174;6.368;2023-05-10T16:10:52;15.70;99.90
51839;DHT22;37886;53.174;6.368;2023-05-10T16:13:18;15.70;99.90